Time;durP1;ratioP1;P1;durP2;ratioP2;P2;SDS_P1;SDS_P2;PMS_P1;PMS_P2;Temp;Humidity;BMP_temperature;BMP_pressure;BME280_temperature;BME280_humidity;BME280_pressure;Samples;Min_cycle;Max_cycle;Signal;HPM_P1;HPM_P2
2022/05/14 00:04:46;;;;;;;4.05;2.08;;;;;;;11.85;55.91;100406.66;10266222;28;20047;-59
2022/05/14 00:09:47;;;;;;;4.72;2.15;;;;;;;11.85;55.99;100409.28;10268011;28;20059;-59
2022/05/14 00:14:49;;;;;;;6.68;2.10;;;;;;;11.77;55.97;100411.47;10266875;28;20043;-60
2022/05/14 00:19:51;;;;;;;4.57;1.95;;;;;;;11.65;56.00;100405.19;10274100;28;21085;-59
2022/05/14 00:24:52;;;;;;;6.90;2.70;;;;;;;11.51;56.51;100401.63;10265220;28;20606;-59
2022/05/14 00:29:56;;;;;;;6.20;2.10;;;;;;;11.38;56.56;100404.09;10267635;28;20438;-59
2022/05/14 00:34:57;;;;;;;5.03;2.40;;;;;;;11.30;56.77;100399.28;10278089;28;20055;-59
2022/05/14 00:39:59;;;;;;;4.13;2.20;;;;;;;11.28;56.99;100405.53;10297936;28;20062;-60
2022/05/14 00:45:01;;;;;;;6.40;2.30;;;;;;;11.27;57.20;100402.06;10274443;28;20330;-59
2022/05/14 00:50:14;;;;;;;5.28;2.20;;;;;;;11.22;57.33;100409.34;10268449;28;20531;-61
2022/05/14 00:55:18;;;;;;;5.88;2.30;;;;;;;11.14;57.30;100403.69;10281864;28;20501;-60
2022/05/14 01:00:22;;;;;;;5.55;2.45;;;;;;;11.11;57.12;100403.00;10266652;28;20581;-60
2022/05/14 01:05:25;;;;;;;3.55;2.20;;;;;;;11.09;57.01;100395.22;10266669;28;20050;-59
2022/05/14 01:10:32;;;;;;;5.25;2.15;;;;;;;10.98;57.38;100404.56;10264946;28;20145;-59
2022/05/14 01:15:45;;;;;;;9.38;2.50;;;;;;;10.84;58.03;100397.44;10265005;28;20070;-60
2022/05/14 01:20:53;;;;;;;4.97;2.70;;;;;;;10.80;57.88;100398.53;10263004;28;20542;-59
2022/05/14 01:31:23;;;;;;;4.72;2.28;;;;;;;10.70;57.89;100397.34;10268993;28;20055;-59
2022/05/14 01:36:25;;;;;;;6.05;2.45;;;;;;;10.71;57.88;100401.63;10263698;28;20088;-60
2022/05/14 01:41:27;;;;;;;6.68;2.38;;;;;;;10.62;58.19;100398.66;10261947;28;20047;-60
2022/05/14 01:46:28;;;;;;;5.57;2.40;;;;;;;10.54;58.01;100395.59;10268624;28;20097;-60
2022/05/14 01:51:30;;;;;;;3.90;2.15;;;;;;;10.45;58.01;100407.38;10264277;28;20388;-59
2022/05/14 01:56:32;;;;;;;6.07;2.22;;;;;;;10.33;58.28;100402.78;10263534;28;20057;-59
2022/05/14 02:01:36;;;;;;;5.25;2.28;;;;;;;10.42;58.51;100402.28;10265725;28;20396;-59
2022/05/14 02:06:39;;;;;;;6.45;2.50;;;;;;;10.42;58.18;100399.69;10270508;28;20054;-59
2022/05/14 02:11:42;;;;;;;7.40;2.92;;;;;;;10.31;58.24;100397.66;10270764;28;20145;-59
2022/05/14 02:16:43;;;;;;;4.90;2.40;;;;;;;9.78;58.55;100401.25;10271028;28;20148;-59
2022/05/14 02:21:45;;;;;;;4.90;2.30;;;;;;;9.69;59.07;100399.09;10300159;28;20050;-59
2022/05/14 02:26:47;;;;;;;6.95;2.50;;;;;;;9.83;59.04;100391.44;10271722;28;20396;-60
2022/05/14 02:31:49;;;;;;;7.80;2.63;;;;;;;9.91;58.83;100391.91;10270718;28;20090;-59
2022/05/14 02:36:50;;;;;;;5.55;2.50;;;;;;;9.87;58.85;100387.75;10287922;28;20094;-59
2022/05/14 02:41:52;;;;;;;5.38;2.55;;;;;;;9.88;58.96;100390.28;10270151;28;20312;-59
2022/05/14 02:46:54;;;;;;;4.65;2.20;;;;;;;9.92;58.81;100391.81;10283836;28;20086;-59
2022/05/14 02:51:56;;;;;;;5.82;3.20;;;;;;;9.92;58.81;100390.94;10267430;28;20115;-59
2022/05/14 02:56:57;;;;;;;10.23;2.67;;;;;;;9.83;58.99;100396.66;10269973;28;20054;-59
2022/05/14 03:02:00;;;;;;;5.88;2.85;;;;;;;9.74;59.22;100392.72;10271600;28;20078;-59
2022/05/14 03:07:03;;;;;;;6.05;3.17;;;;;;;9.72;59.16;100401.53;10264407;28;20245;-59
2022/05/14 03:12:07;;;;;;;4.57;2.70;;;;;;;9.63;59.29;100395.81;10260596;28;20150;-59
2022/05/14 03:17:09;;;;;;;7.70;2.55;;;;;;;9.54;59.21;100395.41;10261956;28;20061;-59
2022/05/14 03:22:11;;;;;;;6.20;2.42;;;;;;;9.48;59.47;100395.72;10261659;28;20098;-60
2022/05/14 03:27:13;;;;;;;8.00;2.85;;;;;;;9.45;59.46;100401.06;10262301;28;20564;-59
2022/05/14 03:32:15;;;;;;;5.90;2.78;;;;;;;9.36;59.37;100397.13;10261279;28;20201;-59
2022/05/14 03:37:17;;;;;;;4.82;2.60;;;;;;;9.35;59.87;100400.66;10261033;28;20058;-59
2022/05/14 03:42:19;;;;;;;6.43;3.05;;;;;;;9.36;59.68;100394.50;10260954;28;20061;-59
2022/05/14 03:47:21;;;;;;;7.60;2.88;;;;;;;9.24;59.70;100397.69;10261847;28;20074;-62
2022/05/14 03:52:23;;;;;;;4.80;2.40;;;;;;;9.23;59.92;100400.38;10261344;28;20177;-59
2022/05/14 03:57:24;;;;;;;6.15;2.70;;;;;;;9.27;59.74;100397.56;10294183;28;20082;-59
2022/05/14 04:02:26;;;;;;;6.38;2.63;;;;;;;9.19;59.48;100404.91;10265059;28;20074;-59
2022/05/14 04:07:28;;;;;;;5.85;2.80;;;;;;;9.14;59.52;100412.09;10261815;28;20055;-59
2022/05/14 04:12:29;;;;;;;6.03;2.58;;;;;;;9.15;60.05;100407.72;10261196;28;20061;-59
2022/05/14 04:17:31;;;;;;;5.07;2.80;;;;;;;9.15;59.87;100411.19;10260646;28;20619;-61
2022/05/14 04:22:34;;;;;;;5.82;2.80;;;;;;;9.23;59.78;100416.06;10261419;28;20138;-59
2022/05/14 04:27:35;;;;;;;7.13;3.08;;;;;;;9.25;59.28;100420.28;10263271;28;20232;-59
2022/05/14 04:32:38;;;;;;;12.95;3.10;;;;;;;9.11;58.94;100425.31;10273709;28;20132;-63
2022/05/14 04:37:40;;;;;;;5.47;2.90;;;;;;;8.84;59.62;100423.94;10290184;28;20424;-59
2022/05/14 04:42:42;;;;;;;6.20;2.50;;;;;;;9.31;59.04;100419.16;10267377;28;20508;-59
2022/05/14 04:47:43;;;;;;;5.75;2.78;;;;;;;10.32;57.27;100414.16;10266580;28;20137;-59
2022/05/14 04:52:46;;;;;;;6.45;2.38;;;;;;;12.47;53.45;100416.97;10269017;28;20054;-59
2022/05/14 04:57:47;;;;;;;4.82;2.35;;;;;;;15.31;47.34;100411.25;10267611;28;20109;-59
2022/05/14 05:08:10;;;;;;;4.65;2.35;;;;;;;17.72;42.13;100397.81;10266982;28;20043;-60
2022/05/14 05:13:16;;;;;;;6.28;2.10;;;;;;;17.76;40.84;100407.19;10265835;28;20046;-60
2022/05/14 05:18:19;;;;;;;5.13;2.30;;;;;;;15.87;44.01;100413.28;10267159;28;20494;-59
2022/05/14 05:23:22;;;;;;;5.10;2.25;;;;;;;14.98;45.61;100414.47;10280124;28;20050;-60
2022/05/14 05:28:26;;;;;;;5.03;2.83;;;;;;;14.20;47.50;100433.91;10265914;28;20117;-60
2022/05/14 05:33:28;;;;;;;8.65;2.50;;;;;;;13.81;48.62;100433.91;10265691;28;20078;-60
2022/05/14 05:38:29;;;;;;;5.00;2.70;;;;;;;13.62;49.16;100436.03;10279489;28;20054;-60
2022/05/14 05:43:31;;;;;;;5.10;2.45;;;;;;;13.31;50.16;100441.53;10278334;28;20495;-60
2022/05/14 05:48:33;;;;;;;4.93;2.30;;;;;;;13.03;51.04;100441.56;10264676;28;20420;-60
2022/05/14 05:58:57;;;;;;;5.03;2.53;;;;;;;12.90;51.61;100444.09;10272985;28;20046;-61
2022/05/14 06:03:58;;;;;;;5.50;2.67;;;;;;;12.87;52.36;100452.13;10264649;28;20483;-62
2022/05/14 06:09:01;;;;;;;5.40;2.90;;;;;;;12.91;52.12;100453.63;10264050;28;20083;-60
2022/05/14 06:14:02;;;;;;;5.55;2.78;;;;;;;13.08;52.13;100448.22;10262627;28;20587;-60
2022/05/14 06:19:05;;;;;;;7.43;2.65;;;;;;;13.32;52.10;100453.72;10262515;28;20055;-60
2022/05/14 06:24:08;;;;;;;6.38;3.03;;;;;;;13.26;52.44;100448.84;10262052;28;20142;-60
2022/05/14 06:29:10;;;;;;;7.30;2.78;;;;;;;13.53;52.49;100455.03;10262493;28;20252;-60
2022/05/14 06:34:12;;;;;;;6.55;2.60;;;;;;;13.72;52.21;100458.16;10262843;28;20145;-61
2022/05/14 06:39:13;;;;;;;8.80;2.60;;;;;;;13.98;51.97;100454.69;10262512;28;20441;-60
2022/05/14 06:44:15;;;;;;;6.50;2.67;;;;;;;14.16;51.95;100456.13;10263819;28;20086;-61
2022/05/14 06:49:17;;;;;;;5.72;3.03;;;;;;;14.40;51.28;100466.78;10263077;28;20054;-62
2022/05/14 06:54:20;;;;;;;6.45;2.97;;;;;;;14.43;50.69;100458.69;10262490;28;20047;-61
2022/05/14 06:59:22;;;;;;;6.82;2.60;;;;;;;14.73;50.37;100458.41;10260987;28;20149;-61
2022/05/14 07:09:44;;;;;;;;;;;;;;;15.11;49.47;100454.81;10262207;28;20061;-61
2022/05/14 07:14:46;;;;;;;6.07;2.20;;;;;;;15.50;47.43;100458.25;10263271;28;19965;-61
2022/05/14 07:19:49;;;;;;;10.75;2.20;;;;;;;15.82;47.62;100452.31;10264032;28;20086;-62
2022/05/14 07:24:51;;;;;;;8.32;2.28;;;;;;;15.91;45.94;100451.66;10262174;28;20082;-61
2022/05/14 07:29:53;;;;;;;5.70;2.22;;;;;;;16.69;45.15;100450.13;10260092;28;20674;-62
2022/05/14 07:34:54;;;;;;;7.18;2.38;;;;;;;18.81;41.86;100438.06;10261828;28;20094;-61
2022/05/14 07:40:18;;;;;;;7.00;2.00;;;;;;;20.26;36.75;100439.13;10261099;28;20102;-62
2022/05/14 07:45:27;;;;;;;5.45;2.00;;;;;;;21.08;35.63;100424.28;10262172;28;20562;-61
2022/05/14 07:50:28;;;;;;;12.07;2.27;;;;;;;21.41;35.41;100420.22;10261797;28;20110;-61
2022/05/14 07:55:30;;;;;;;6.53;1.85;;;;;;;21.57;35.23;100425.72;10261763;28;20169;-62
2022/05/14 08:00:37;;;;;;;6.45;1.80;;;;;;;22.65;33.17;100420.06;10257838;28;20314;-62
2022/05/14 08:05:39;;;;;;;7.63;1.90;;;;;;;22.87;32.59;100421.38;10287068;28;20049;-61
2022/05/14 08:10:41;;;;;;;4.35;1.63;;;;;;;23.24;31.65;100418.38;10267807;28;20146;-62
2022/05/14 08:15:44;;;;;;;9.27;1.98;;;;;;;23.87;30.68;100411.56;10269859;28;20129;-68
2022/05/14 08:20:47;;;;;;;5.63;1.63;;;;;;;24.03;30.80;100408.91;10272931;28;20431;-69
2022/05/14 08:25:55;;;;;;;5.55;2.20;;;;;;;23.70;31.33;100414.34;10268529;28;20081;-70
2022/05/14 08:30:57;;;;;;;9.70;1.80;;;;;;;23.94;29.88;100407.22;10265056;28;20078;-67
2022/05/14 08:36:00;;;;;;;6.70;1.88;;;;;;;24.24;29.64;100406.59;10262113;28;20051;-69
2022/05/14 08:41:03;;;;;;;6.63;2.08;;;;;;;24.56;29.24;100403.06;10265240;28;20157;-69
2022/05/14 08:46:08;;;;;;;5.60;1.98;;;;;;;24.36;29.24;100393.72;10264726;28;20178;-67
2022/05/14 08:51:32;;;;;;;8.63;1.95;;;;;;;24.10;29.42;100398.44;10265979;28;20162;-68
2022/05/14 08:56:46;;;;;;;9.15;2.00;;;;;;;24.22;28.12;100395.25;10265975;28;20334;-69
2022/05/14 09:01:49;;;;;;;7.63;2.00;;;;;;;23.84;29.16;100392.38;10265405;28;20049;-68
2022/05/14 09:06:51;;;;;;;9.55;2.10;;;;;;;24.48;28.65;100387.03;10260569;28;20042;-69
2022/05/14 09:11:57;;;;;;;3.95;1.60;;;;;;;24.63;28.12;100388.00;10265798;28;20059;-69
2022/05/14 09:17:02;;;;;;;6.57;1.70;;;;;;;24.61;28.14;100387.31;10260173;28;20196;-69
2022/05/14 09:22:30;;;;;;;5.65;1.77;;;;;;;24.45;27.53;100381.19;10263508;28;20075;-69
2022/05/14 09:27:47;;;;;;;5.53;1.58;;;;;;;24.24;27.48;100379.88;10275045;28;20050;-69
2022/05/14 09:32:49;;;;;;;7.85;1.60;;;;;;;24.42;27.47;100385.03;10270000;28;20182;-69
2022/05/14 09:37:55;;;;;;;6.15;1.88;;;;;;;24.32;26.95;100380.84;10266862;28;20051;-69
2022/05/14 09:43:22;;;;;;;5.95;1.73;;;;;;;24.14;26.82;100383.72;10259823;28;20169;-69
2022/05/14 09:48:51;;;;;;;7.53;1.70;;;;;;;24.61;26.45;100381.97;10259781;28;20138;-67
2022/05/14 09:53:54;;;;;;;7.80;1.80;;;;;;;24.43;26.90;100373.31;10277999;28;20376;-68
2022/05/14 09:59:25;;;;;;;8.60;1.95;;;;;;;24.47;27.22;100381.84;10259770;28;20150;-68
2022/05/14 10:04:48;;;;;;;5.45;1.80;;;;;;;24.74;26.93;100370.78;10277052;28;20598;-68
2022/05/14 10:10:24;;;;;;;5.70;1.95;;;;;;;24.89;26.20;100363.72;10262693;28;20082;-68
2022/05/14 10:15:34;;;;;;;6.78;1.90;;;;;;;24.78;26.49;100356.03;10262231;28;20050;-68
2022/05/14 10:20:56;;;;;;;6.10;1.60;;;;;;;24.55;26.31;100357.75;10260847;28;20062;-68
2022/05/14 10:31:41;;;;;;;5.88;1.60;;;;;;;24.28;26.26;100354.47;10256511;28;20157;-68
2022/05/14 10:36:49;;;;;;;6.35;1.65;;;;;;;24.22;27.10;100347.13;10254203;28;20466;-68
2022/05/14 10:42:03;;;;;;;7.13;3.03;;;;;;;23.89;27.18;100342.78;10261568;28;20138;-68
2022/05/14 10:47:09;;;;;;;5.35;1.88;;;;;;;23.53;27.44;100336.06;10257623;28;20153;-68
2022/05/14 10:52:15;;;;;;;7.15;1.70;;;;;;;23.26;28.54;100339.81;10259092;28;20165;-68
2022/05/14 10:57:17;;;;;;;4.75;1.50;;;;;;;23.23;27.87;100328.63;10255391;28;20093;-68
2022/05/14 11:02:28;;;;;;;5.47;1.60;;;;;;;23.27;28.73;100316.63;10258994;28;20231;-68
2022/05/14 11:07:36;;;;;;;5.57;1.90;;;;;;;23.44;28.47;100321.03;10268640;28;20050;-68
2022/05/14 11:12:38;;;;;;;6.68;2.13;;;;;;;23.26;28.66;100312.28;10250241;28;20406;-68
2022/05/14 11:17:40;;;;;;;5.97;1.70;;;;;;;23.22;28.06;100311.78;10265957;28;20069;-68
2022/05/14 11:22:45;;;;;;;4.68;1.45;;;;;;;23.33;28.36;100306.13;10258319;28;20169;-68
2022/05/14 11:28:01;;;;;;;4.82;1.40;;;;;;;23.51;26.99;100306.03;10258906;28;20158;-68
2022/05/14 11:33:29;;;;;;;7.80;1.75;;;;;;;23.53;27.47;100298.69;10258313;28;20066;-68
2022/05/14 11:38:35;;;;;;;6.97;1.85;;;;;;;23.77;27.12;100290.69;10255777;28;20042;-68
2022/05/14 11:43:39;;;;;;;4.38;1.50;;;;;;;23.51;26.75;100300.69;10266957;28;20051;-68
2022/05/14 11:48:57;;;;;;;4.25;1.50;;;;;;;23.50;25.41;100296.34;10282147;28;20133;-67
2022/05/14 11:54:12;;;;;;;4.65;1.50;;;;;;;23.43;24.92;100298.03;10263852;28;20491;-68
2022/05/14 11:59:21;;;;;;;5.68;1.52;;;;;;;23.67;24.92;100292.69;10264422;28;20082;-68
2022/05/14 12:04:34;;;;;;;5.50;1.65;;;;;;;23.62;24.12;100287.00;10263644;28;20134;-68
2022/05/14 12:09:51;;;;;;;4.13;1.40;;;;;;;23.77;24.54;100288.03;10261350;28;20046;-68
2022/05/14 12:14:53;;;;;;;3.92;1.50;;;;;;;23.65;25.08;100273.34;10261866;28;20150;-68
2022/05/14 12:19:56;;;;;;;4.03;1.30;;;;;;;23.84;25.13;100269.50;10265738;28;20051;-68
2022/05/14 12:24:58;;;;;;;4.32;1.42;;;;;;;23.98;24.87;100266.94;10264475;28;20654;-68
2022/05/14 12:33:11;;;;;;;5.05;1.40;;;;;;;24.28;23.58;100260.91;10264166;28;20142;-68
2022/05/14 12:35:59;;;;;;;3.85;1.40;;;;;;;24.20;24.09;100254.75;10264989;28;20051;-68
2022/05/14 12:41:04;;;;;;;6.45;1.60;;;;;;;24.51;24.32;100249.47;10267005;28;20572;-68
2022/05/14 12:46:08;;;;;;;6.03;1.63;;;;;;;24.29;23.98;100249.22;10290679;28;20146;-68
2022/05/14 12:51:16;;;;;;;6.05;1.73;;;;;;;24.37;22.52;100248.34;10296234;28;20258;-67
2022/05/14 12:56:21;;;;;;;4.05;1.50;;;;;;;24.43;23.50;100244.16;10270704;28;20150;-68
2022/05/14 13:01:25;;;;;;;4.25;1.50;;;;;;;24.56;21.63;100244.44;10265550;28;20142;-68
2022/05/14 13:06:31;;;;;;;4.10;1.50;;;;;;;24.66;21.21;100239.69;10264227;28;20054;-67
2022/05/14 13:11:35;;;;;;;3.85;1.50;;;;;;;24.65;21.14;100241.56;10279537;28;21127;-68
2022/05/14 13:16:37;;;;;;;3.95;1.42;;;;;;;24.48;21.63;100247.13;10265752;28;20172;-68
2022/05/14 13:22:09;;;;;;;5.65;1.50;;;;;;;24.13;22.19;100245.75;10289417;28;20170;-68
2022/05/14 13:27:11;;;;;;;6.13;1.50;;;;;;;24.35;22.67;100233.50;10278624;28;20490;-68
2022/05/14 13:32:27;;;;;;;4.65;1.50;;;;;;;24.85;23.35;100216.06;10249210;28;20101;-67
2022/05/14 13:37:42;;;;;;;5.28;1.77;;;;;;;24.91;22.34;100218.03;10255390;28;20111;-68
2022/05/14 13:42:49;;;;;;;5.72;1.85;;;;;;;24.90;22.38;100220.88;10269902;28;20096;-68
2022/05/14 13:47:58;;;;;;;5.45;1.70;;;;;;;24.99;20.01;100214.47;10262380;28;20054;-68
2022/05/14 13:53:01;;;;;;;6.20;1.65;;;;;;;24.94;20.06;100208.81;10258512;28;20070;-68
2022/05/14 13:58:27;;;;;;;4.72;1.50;;;;;;;24.92;20.71;100202.78;10261773;28;20047;-67
2022/05/14 14:03:53;;;;;;;6.20;1.70;;;;;;;24.88;20.31;100193.47;10260452;28;20410;-66
2022/05/14 14:08:55;;;;;;;4.97;1.60;;;;;;;24.90;20.55;100188.75;10261569;28;20197;-68
2022/05/14 14:13:56;;;;;;;6.32;1.75;;;;;;;24.94;21.69;100201.63;10262528;28;20668;-67
2022/05/14 14:18:58;;;;;;;5.60;1.88;;;;;;;24.84;20.29;100186.78;10264144;28;20687;-68
2022/05/14 14:24:06;;;;;;;5.25;1.90;;;;;;;24.85;21.34;100188.47;10263009;28;20090;-68
2022/05/14 14:29:09;;;;;;;4.00;1.50;;;;;;;25.16;21.40;100181.25;10263827;28;20065;-68
2022/05/14 14:34:12;;;;;;;4.45;1.77;;;;;;;25.22;20.58;100174.34;10262123;28;20142;-68
2022/05/14 14:39:14;;;;;;;10.30;1.80;;;;;;;25.13;20.38;100170.88;10262758;28;20109;-68
2022/05/14 14:44:16;;;;;;;7.05;2.00;;;;;;;25.31;20.99;100165.19;10265407;28;20058;-68
2022/05/14 14:49:17;;;;;;;4.90;1.50;;;;;;;25.41;21.28;100165.81;10260683;28;20203;-68
2022/05/14 14:54:19;;;;;;;7.53;1.90;;;;;;;25.13;21.52;100168.19;10263016;28;20459;-68
2022/05/14 14:59:21;;;;;;;7.80;2.20;;;;;;;25.05;22.37;100165.59;10259529;28;20489;-66
2022/05/14 15:04:46;;;;;;;4.57;1.70;;;;;;;25.02;22.06;100155.22;10261348;28;20198;-67
2022/05/14 15:09:49;;;;;;;6.80;1.95;;;;;;;25.07;21.72;100160.88;10262415;28;20094;-67
2022/05/14 15:14:51;;;;;;;7.00;1.83;;;;;;;24.96;21.63;100162.13;10261001;28;20538;-68
2022/05/14 15:19:54;;;;;;;4.32;1.50;;;;;;;24.74;21.12;100156.78;10262642;28;20335;-67
2022/05/14 15:24:58;;;;;;;8.25;1.95;;;;;;;24.44;21.06;100160.25;10261954;28;20581;-66
2022/05/14 15:30:00;;;;;;;5.60;1.50;;;;;;;24.61;21.71;100164.53;10260857;28;20051;-66
2022/05/14 15:35:04;;;;;;;6.13;1.58;;;;;;;24.58;21.63;100162.19;10261098;28;20349;-68
2022/05/14 15:40:08;;;;;;;6.43;1.60;;;;;;;24.74;21.06;100152.25;10258995;28;20567;-68
2022/05/14 15:45:25;;;;;;;3.45;1.60;;;;;;;24.64;20.70;100151.63;10260229;28;20133;-68
2022/05/14 15:50:31;;;;;;;3.38;1.50;;;;;;;24.86;20.70;100142.81;10266171;28;20061;-68
2022/05/14 15:55:33;;;;;;;5.38;1.60;;;;;;;24.82;20.83;100149.53;10271376;28;20046;-68
2022/05/14 16:00:35;;;;;;;6.15;1.80;;;;;;;24.63;21.06;100149.13;10268838;28;20101;-68
2022/05/14 16:05:37;;;;;;;4.93;1.70;;;;;;;24.60;21.22;100150.31;10277445;28;20065;-68
2022/05/14 16:16:03;;;;;;;4.70;1.70;;;;;;;24.71;21.89;100146.41;10284557;28;20137;-69
2022/05/14 16:21:08;;;;;;;5.85;1.80;;;;;;;24.75;21.41;100142.41;10258225;28;20051;-67
2022/05/14 16:26:15;;;;;;;6.07;1.92;;;;;;;24.61;22.08;100143.94;10253565;28;20057;-67
2022/05/14 16:31:18;;;;;;;6.45;2.08;;;;;;;24.54;22.38;100142.16;10266753;28;20153;-67
2022/05/14 16:36:21;;;;;;;5.22;1.65;;;;;;;24.53;22.73;100135.97;10281688;28;20614;-67
2022/05/14 16:41:23;;;;;;;7.28;1.80;;;;;;;24.28;22.78;100140.63;10252966;28;20054;-67
2022/05/14 16:46:25;;;;;;;4.95;1.80;;;;;;;24.13;22.27;100137.00;10260877;28;20078;-67
2022/05/14 16:51:28;;;;;;;6.43;1.70;;;;;;;23.93;22.80;100146.41;10264222;28;20538;-67
2022/05/14 16:56:29;;;;;;;6.22;1.60;;;;;;;23.68;22.68;100142.13;10264740;28;20047;-68
2022/05/14 17:01:31;;;;;;;4.05;1.70;;;;;;;23.49;22.68;100142.53;10290738;28;20125;-67
2022/05/14 17:06:34;;;;;;;4.30;1.90;;;;;;;23.62;23.13;100133.97;10263564;28;20055;-67
2022/05/14 17:11:36;;;;;;;6.97;1.63;;;;;;;23.58;22.71;100136.16;10263714;28;20578;-67
2022/05/14 17:16:38;;;;;;;6.45;1.70;;;;;;;23.50;22.91;100138.84;10265811;28;20091;-67
2022/05/14 17:21:43;;;;;;;8.15;1.70;;;;;;;23.31;22.75;100144.47;10278057;28;20061;-67
2022/05/14 17:26:45;;;;;;;7.88;1.73;;;;;;;23.22;22.81;100140.16;10264653;28;20047;-67
2022/05/14 17:31:47;;;;;;;6.55;1.75;;;;;;;23.10;23.22;100145.00;10272270;28;20562;-66
2022/05/14 17:42:13;;;;;;;5.05;1.70;;;;;;;22.74;23.73;100138.28;10263070;28;20570;-67
2022/05/14 17:47:17;;;;;;;6.57;1.90;;;;;;;22.55;24.52;100144.75;10277258;28;20134;-67
2022/05/14 17:52:19;;;;;;;6.18;2.03;;;;;;;22.38;25.01;100144.84;10261142;28;20522;-67
2022/05/14 17:57:22;;;;;;;5.70;1.73;;;;;;;22.26;25.03;100149.63;10258907;28;20121;-67
2022/05/14 18:02:23;;;;;;;5.53;1.70;;;;;;;22.23;25.80;100149.13;10266584;28;20086;-66
2022/05/14 18:07:25;;;;;;;10.65;1.70;;;;;;;22.13;26.71;100149.25;10266658;28;20074;-66
2022/05/14 18:12:28;;;;;;;4.65;1.80;;;;;;;21.97;27.51;100148.28;10265558;28;20503;-67
2022/05/14 18:17:29;;;;;;;5.53;1.80;;;;;;;21.67;27.46;100145.16;10264744;28;20086;-66
2022/05/14 18:22:31;;;;;;;5.85;2.17;;;;;;;21.51;28.81;100141.56;10265662;28;20094;-68
2022/05/14 18:27:37;;;;;;;4.80;2.47;;;;;;;21.44;29.52;100154.63;10265314;28;20094;-66
2022/05/14 18:32:58;;;;;;;7.50;1.80;;;;;;;21.20;30.86;100161.56;10265536;28;20130;-67
2022/05/14 18:38:01;;;;;;;3.92;1.90;;;;;;;20.98;31.49;100166.38;10265550;28;20086;-67
2022/05/14 18:43:09;;;;;;;8.07;1.80;;;;;;;20.78;31.22;100172.84;10264453;28;20696;-67
2022/05/14 18:48:11;;;;;;;6.35;1.90;;;;;;;20.46;31.81;100166.31;10264463;28;20110;-67
2022/05/14 18:53:13;;;;;;;6.75;1.80;;;;;;;20.20;32.96;100180.25;10264066;28;20567;-68
2022/05/14 18:58:14;;;;;;;8.65;1.75;;;;;;;19.96;34.34;100184.41;10262077;28;20141;-68
2022/05/14 19:03:16;;;;;;;7.18;2.00;;;;;;;19.77;34.26;100184.44;10263931;28;20194;-67
2022/05/14 19:08:19;;;;;;;4.65;2.00;;;;;;;19.54;34.74;100191.06;10264219;28;20053;-67
2022/05/14 19:13:21;;;;;;;4.22;1.70;;;;;;;19.19;35.43;100192.50;10263100;28;20141;-68
2022/05/14 19:18:22;;;;;;;4.10;1.70;;;;;;;19.03;35.98;100200.16;10263582;28;20144;-67
2022/05/14 19:23:26;;;;;;;4.60;1.48;;;;;;;18.80;36.67;100208.47;10264423;28;20458;-66
2022/05/14 19:28:28;;;;;;;7.60;2.10;;;;;;;18.65;36.94;100214.16;10264107;28;20054;-67
2022/05/14 19:33:30;;;;;;;6.03;1.80;;;;;;;18.42;37.76;100217.19;10259153;28;20508;-62
2022/05/14 19:38:38;;;;;;;6.05;1.95;;;;;;;18.14;38.71;100216.03;10263384;28;20046;-60
2022/05/14 19:43:43;;;;;;;6.45;2.20;;;;;;;17.82;38.95;100225.91;10260263;28;20082;-61
2022/05/14 19:48:47;;;;;;;4.13;1.92;;;;;;;17.68;39.37;100229.72;10259016;28;20204;-61
2022/05/14 19:53:50;;;;;;;4.47;1.98;;;;;;;17.57;39.97;100235.06;10257380;28;20137;-61
2022/05/14 19:58:52;;;;;;;7.05;2.25;;;;;;;17.43;40.34;100239.81;10261461;28;20138;-61
2022/05/14 20:03:54;;;;;;;7.40;2.53;;;;;;;17.31;40.62;100235.53;10270549;28;20468;-61
2022/05/14 20:08:56;;;;;;;5.70;2.80;;;;;;;17.12;41.38;100244.13;10266600;28;20563;-60
2022/05/14 20:13:58;;;;;;;5.72;2.33;;;;;;;16.81;41.82;100237.84;10267685;28;20105;-60
2022/05/14 20:24:20;;;;;;;6.72;2.30;;;;;;;16.47;42.77;100259.19;10268275;28;20153;-60
2022/05/14 20:29:22;;;;;;;8.93;2.40;;;;;;;16.35;42.85;100260.06;10301620;28;20104;-60
2022/05/14 20:34:23;;;;;;;4.18;2.20;;;;;;;16.26;43.37;100266.09;10270088;28;20181;-60
2022/05/14 20:39:25;;;;;;;6.80;2.47;;;;;;;16.15;43.74;100265.13;10268459;28;20282;-60
2022/05/14 20:44:27;;;;;;;6.47;2.28;;;;;;;16.05;44.25;100280.00;10267657;28;20129;-60
2022/05/14 20:49:29;;;;;;;7.90;2.33;;;;;;;15.98;44.27;100273.50;10267147;28;20094;-61
2022/05/14 20:54:31;;;;;;;5.10;2.30;;;;;;;15.37;45.16;100292.19;10266702;28;20057;-61
2022/05/14 20:59:33;;;;;;;5.22;2.22;;;;;;;15.22;45.44;100299.47;10266717;28;20082;-61
2022/05/14 21:04:35;;;;;;;6.97;3.10;;;;;;;14.40;47.96;100299.22;10269947;28;20401;-61
2022/05/14 21:09:37;;;;;;;6.82;3.20;;;;;;;14.66;47.74;100305.31;10272167;28;20542;-60
2022/05/14 21:14:38;;;;;;;8.50;2.83;;;;;;;14.80;47.77;100306.97;10266099;28;20095;-60
2022/05/14 21:19:40;;;;;;;5.82;2.80;;;;;;;14.92;47.43;100299.03;10266290;28;20724;-60
2022/05/14 21:24:42;;;;;;;8.20;3.10;;;;;;;14.76;47.39;100301.06;10264006;28;20050;-60
2022/05/14 21:29:44;;;;;;;7.18;3.35;;;;;;;14.67;47.72;100301.75;10280906;28;20566;-61
2022/05/14 21:40:11;;;;;;;7.97;3.33;;;;;;;14.69;47.78;100304.25;10267413;28;20134;-60
2022/05/14 21:45:14;;;;;;;6.88;2.95;;;;;;;14.69;47.96;100313.00;10265919;28;20050;-60
2022/05/14 21:50:17;;;;;;;6.72;2.47;;;;;;;14.73;48.09;100303.09;10265764;28;20500;-60
2022/05/14 21:55:24;;;;;;;7.32;2.67;;;;;;;14.50;48.49;100309.97;10264512;28;20098;-60
2022/05/14 22:00:26;;;;;;;7.13;2.90;;;;;;;14.46;48.75;100311.09;10269960;28;20053;-59
2022/05/14 22:05:32;;;;;;;8.57;3.13;;;;;;;14.46;48.74;100304.06;10264579;28;20050;-60
2022/05/14 22:10:34;;;;;;;8.57;3.22;;;;;;;14.17;49.15;100307.00;10263643;28;20466;-60
2022/05/14 22:15:36;;;;;;;4.68;2.60;;;;;;;14.00;49.55;100304.69;10263498;28;20182;-60
2022/05/14 22:20:38;;;;;;;6.60;2.85;;;;;;;14.10;49.32;100314.50;10263252;28;20086;-60
2022/05/14 22:25:39;;;;;;;9.13;2.92;;;;;;;14.12;49.40;100311.75;10262307;28;20149;-60
2022/05/14 22:30:41;;;;;;;5.55;2.60;;;;;;;13.94;49.88;100310.38;10265672;28;20136;-60
2022/05/14 22:35:43;;;;;;;6.35;2.50;;;;;;;13.94;50.06;100313.84;10283837;28;20070;-60
2022/05/14 22:40:57;;;;;;;7.90;3.10;;;;;;;13.88;50.22;100308.97;10262678;28;20047;-61
2022/05/14 22:46:00;;;;;;;5.65;2.70;;;;;;;13.66;50.69;100304.31;10281954;28;20562;-61
2022/05/14 22:51:05;;;;;;;6.47;2.70;;;;;;;13.59;51.01;100310.09;10280996;28;20051;-60
2022/05/14 22:56:07;;;;;;;6.30;2.70;;;;;;;13.47;50.93;100306.50;10261502;28;20129;-60
2022/05/14 23:01:11;;;;;;;8.68;2.80;;;;;;;13.34;51.36;100308.19;10260488;28;20113;-61
2022/05/14 23:06:13;;;;;;;7.35;2.90;;;;;;;13.32;51.26;100309.22;10271351;28;20046;-63
2022/05/14 23:11:15;;;;;;;5.15;2.70;;;;;;;13.25;51.64;100315.84;10262352;28;20082;-60
2022/05/14 23:16:17;;;;;;;6.15;2.60;;;;;;;13.18;51.95;100311.91;10261384;28;20050;-61
2022/05/14 23:21:19;;;;;;;5.68;2.65;;;;;;;13.09;52.18;100315.97;10261127;28;20054;-61
2022/05/14 23:26:21;;;;;;;7.22;3.00;;;;;;;13.04;52.28;100317.19;10262154;28;20213;-61
2022/05/14 23:31:22;;;;;;;5.10;2.80;;;;;;;12.98;52.51;100310.56;10261975;28;20562;-60
2022/05/14 23:36:24;;;;;;;7.32;3.03;;;;;;;12.87;52.17;100306.00;10263515;28;20142;-61
2022/05/14 23:41:26;;;;;;;5.97;2.72;;;;;;;12.54;53.22;100307.22;10268515;28;20050;-61
2022/05/14 23:46:28;;;;;;;7.00;2.83;;;;;;;12.59;53.37;100308.66;10285703;28;20162;-61
2022/05/14 23:51:30;;;;;;;8.93;2.80;;;;;;;12.54;53.35;100308.09;10267242;28;20423;-61
2022/05/14 23:56:31;;;;;;;6.93;2.80;;;;;;;12.48;53.38;100308.47;10277339;28;20426;-60
